createdAt,value
2023-01-11T00:00:00.115Z,998.75
2023-01-11T00:05:00.227Z,998.64
2023-01-11T00:10:00.135Z,998.5
2023-01-11T00:15:00.729Z,998.46
2023-01-11T00:20:00.557Z,998.52
2023-01-11T00:25:00.546Z,998.33
2023-01-11T00:30:00.557Z,998.29
2023-01-11T00:35:00.142Z,998.18
2023-01-11T00:40:00.121Z,998.08
2023-01-11T00:45:00.112Z,998.07
2023-01-11T00:50:00.548Z,997.97
2023-01-11T00:55:00.567Z,997.96
2023-01-11T01:00:00.574Z,998.03
2023-01-11T01:05:00.530Z,997.82
2023-01-11T01:10:00.567Z,997.89
2023-01-11T01:15:00.743Z,997.78
2023-01-11T01:20:00.535Z,997.86
2023-01-11T01:25:00.527Z,997.88
2023-01-11T01:30:00.549Z,997.78
2023-01-11T01:35:00.555Z,997.68
2023-01-11T01:40:00.544Z,997.75
2023-01-11T01:45:00.570Z,997.52
2023-01-11T01:50:00.554Z,997.39
2023-01-11T01:55:00.169Z,997.47
2023-01-11T02:00:00.558Z,997.44
2023-01-11T02:05:00.542Z,997.42
2023-01-11T02:10:00.576Z,997.28
2023-01-11T02:15:00.559Z,997.12
2023-01-11T02:20:00.111Z,997.14
2023-01-11T02:25:00.182Z,997.15
2023-01-11T02:30:00.183Z,996.95
2023-01-11T02:35:00.145Z,996.94
2023-01-11T02:40:00.185Z,996.9
2023-01-11T02:45:00.104Z,996.91
2023-01-11T02:50:00.120Z,996.76
2023-01-11T02:55:00.145Z,996.72
2023-01-11T03:00:00.122Z,996.6
2023-01-11T03:05:00.117Z,996.48
2023-01-11T03:10:00.127Z,996.24
2023-01-11T03:15:00.121Z,996.1
2023-01-11T03:20:00.120Z,996.39
2023-01-11T03:25:00.154Z,996.19
2023-01-11T03:30:00.117Z,996.07
2023-01-11T03:35:00.124Z,996.07
2023-01-11T03:40:00.123Z,995.88
2023-01-11T03:45:00.113Z,995.97
2023-01-11T03:50:00.144Z,996.05
2023-01-11T03:55:00.158Z,995.99
2023-01-11T04:00:00.115Z,996
2023-01-11T04:05:00.120Z,995.98
2023-01-11T04:10:00.113Z,995.89
2023-01-11T04:15:00.123Z,995.83
2023-01-11T04:20:00.144Z,996.03
2023-01-11T04:25:00.116Z,995.89
2023-01-11T04:30:00.143Z,995.34
2023-01-11T04:35:00.125Z,995.32
2023-01-11T04:40:00.132Z,995.22
2023-01-11T04:45:00.137Z,995.04
2023-01-11T04:50:00.164Z,994.99
2023-01-11T04:55:00.132Z,994.85
2023-01-11T05:00:00.173Z,994.8
2023-01-11T05:05:00.118Z,994.87
2023-01-11T05:10:00.122Z,994.92
2023-01-11T05:15:00.136Z,994.91
2023-01-11T05:20:00.202Z,994.91
2023-01-11T05:25:00.112Z,994.69
2023-01-11T05:30:00.156Z,994.67
2023-01-11T05:35:00.170Z,994.59
2023-01-11T05:40:00.152Z,994.51
2023-01-11T05:45:00.182Z,994.63
2023-01-11T05:50:00.155Z,994.54
2023-01-11T05:55:00.149Z,994.45
2023-01-11T06:00:00.163Z,994.49
2023-01-11T06:05:00.133Z,994.48
2023-01-11T06:10:00.158Z,994.74
2023-01-11T06:15:00.138Z,994.68
2023-01-11T06:20:00.126Z,994.63
2023-01-11T06:25:00.119Z,994.68
2023-01-11T06:30:00.200Z,994.63
2023-01-11T06:35:00.140Z,994.54
2023-01-11T06:40:00.184Z,994.4
2023-01-11T06:45:00.125Z,994.48
2023-01-11T06:50:00.130Z,994.33
2023-01-11T06:55:00.158Z,994.26
2023-01-11T07:00:00.160Z,994.22
2023-01-11T07:05:00.183Z,994.32
2023-01-11T07:10:00.134Z,994.18
2023-01-11T07:15:00.144Z,994.18
2023-01-11T07:20:00.136Z,994.2
2023-01-11T07:25:00.112Z,994.26
2023-01-11T07:30:00.111Z,994.2
2023-01-11T07:35:00.145Z,994.28
2023-01-11T07:40:00.127Z,994.25
2023-01-11T07:45:00.122Z,994.26
2023-01-11T07:50:00.116Z,994.29
2023-01-11T07:55:00.140Z,994.32
2023-01-11T08:00:00.175Z,994.34
2023-01-11T08:05:02.288Z,994.36
2023-01-11T08:10:00.136Z,994.47
2023-01-11T08:15:00.207Z,994.41
2023-01-11T08:20:00.108Z,994.34
2023-01-11T08:25:00.097Z,994.4
2023-01-11T08:30:00.149Z,994.36
2023-01-11T08:35:00.145Z,994.39
2023-01-11T08:40:00.130Z,994.4
2023-01-11T08:45:00.127Z,994.26
2023-01-11T08:50:00.121Z,994.22
2023-01-11T08:55:00.142Z,994.14
2023-01-11T09:00:00.149Z,994.17
2023-01-11T09:05:00.135Z,994.07
2023-01-11T09:10:00.127Z,994.1
2023-01-11T09:15:00.231Z,993.96
2023-01-11T09:20:00.130Z,994.03
2023-01-11T09:25:00.131Z,993.92
2023-01-11T09:30:00.140Z,994.04
2023-01-11T09:35:00.132Z,993.95
2023-01-11T09:40:00.143Z,994
2023-01-11T09:45:00.136Z,994.04
2023-01-11T09:50:00.151Z,993.9
2023-01-11T09:55:00.160Z,993.76
2023-01-11T10:00:00.140Z,993.61
2023-01-11T10:05:00.180Z,993.65
2023-01-11T10:18:25.166Z,993.47
2023-01-11T10:20:00.312Z,993.51
2023-01-11T10:25:00.155Z,993.48
2023-01-11T10:30:00.135Z,993.36
2023-01-11T10:35:00.239Z,993.34
2023-01-11T10:40:00.162Z,993.31
2023-01-11T10:45:00.147Z,993.3
2023-01-11T10:50:00.144Z,993.32
2023-01-11T10:55:00.124Z,993.21
2023-01-11T11:00:00.149Z,993.12
2023-01-11T11:05:00.125Z,993.12
2023-01-11T11:10:00.104Z,993.12
2023-01-11T11:15:00.131Z,992.98
2023-01-11T11:20:00.107Z,992.97
2023-01-11T11:25:00.169Z,993
2023-01-11T11:30:00.177Z,992.9
2023-01-11T11:35:00.186Z,992.96
2023-01-11T11:40:00.108Z,993.1
2023-01-11T11:45:00.120Z,993
2023-01-11T11:50:00.125Z,993.07
2023-01-11T11:55:00.155Z,992.95
2023-01-11T12:00:00.119Z,992.96
2023-01-11T12:05:00.194Z,992.84
2023-01-11T12:10:00.103Z,992.89
2023-01-11T12:15:00.187Z,992.88
2023-01-11T12:20:00.093Z,992.88
2023-01-11T12:25:00.133Z,992.73
2023-01-11T12:30:00.143Z,992.76
2023-01-11T12:35:00.169Z,992.75
2023-01-11T12:40:00.158Z,992.77
2023-01-11T12:45:00.138Z,992.76
2023-01-11T12:50:00.145Z,992.73
2023-01-11T12:55:00.147Z,992.68
2023-01-11T13:00:00.157Z,992.72
2023-01-11T13:05:00.102Z,992.7
2023-01-11T13:10:00.113Z,992.68
2023-01-11T13:15:00.179Z,992.75
2023-01-11T13:20:00.150Z,992.84
2023-01-11T13:25:00.181Z,992.73
2023-01-11T13:30:00.120Z,992.75
2023-01-11T13:35:00.136Z,992.7
2023-01-11T13:40:00.128Z,992.84
2023-01-11T13:45:00.155Z,992.8
2023-01-11T13:50:00.165Z,992.85
2023-01-11T13:55:00.143Z,992.84
2023-01-11T14:00:00.181Z,992.92
2023-01-11T14:05:00.144Z,993.06
2023-01-11T14:10:00.156Z,993.17
2023-01-11T14:15:00.195Z,993.17
2023-01-11T14:20:00.153Z,993.22
2023-01-11T14:25:00.132Z,993.26
2023-01-11T14:30:00.126Z,993.3
2023-01-11T14:35:00.191Z,993.2
2023-01-11T14:40:00.177Z,993.29
2023-01-11T14:45:00.120Z,993.26
2023-01-11T14:50:00.124Z,993.43
2023-01-11T14:55:00.212Z,993.47
2023-01-11T15:00:00.181Z,993.48
2023-01-11T15:05:00.256Z,993.54
2023-01-11T15:10:00.266Z,993.52
2023-01-11T15:15:00.140Z,993.54
2023-01-11T15:20:00.140Z,993.55
2023-01-11T15:25:00.134Z,993.41
2023-01-11T15:30:00.172Z,993.51
2023-01-11T15:35:00.146Z,993.61
2023-01-11T15:40:00.104Z,993.71
2023-01-11T15:45:00.094Z,993.69
2023-01-11T15:50:00.121Z,993.81
2023-01-11T15:55:00.160Z,993.92
2023-01-11T16:00:00.169Z,993.98
2023-01-11T16:05:00.100Z,994.05
2023-01-11T16:10:00.135Z,994.2
2023-01-11T16:15:00.189Z,994.15
2023-01-11T16:20:00.105Z,994.24
2023-01-11T16:25:00.158Z,994.19
2023-01-11T16:30:00.160Z,994.22
2023-01-11T16:35:00.131Z,994.15
2023-01-11T16:40:00.190Z,994.37
2023-01-11T16:45:00.123Z,994.34
2023-01-11T16:50:00.251Z,994.46
2023-01-11T16:55:00.161Z,994.53
2023-01-11T17:00:00.142Z,994.68
2023-01-11T17:05:00.104Z,994.69
2023-01-11T17:10:00.159Z,994.78
2023-01-11T17:15:00.162Z,994.87
2023-01-11T17:20:00.139Z,994.89
2023-01-11T17:25:00.129Z,995.06
2023-01-11T17:30:00.145Z,995.06
2023-01-11T17:35:00.146Z,995.07
2023-01-11T17:40:00.134Z,995
2023-01-11T17:45:00.149Z,995.06
2023-01-11T17:50:00.131Z,995.18
2023-01-11T17:55:00.182Z,995.26
2023-01-11T18:00:00.136Z,995.26
2023-01-11T18:05:00.135Z,995.32
2023-01-11T18:10:03.044Z,995.21
2023-01-11T18:15:00.116Z,995.36
2023-01-11T18:20:00.191Z,995.37
2023-01-11T18:25:00.117Z,995.53
2023-01-11T18:30:00.174Z,995.63
2023-01-11T18:35:00.151Z,995.62
2023-01-11T18:40:00.132Z,995.66
2023-01-11T18:45:00.135Z,995.63
2023-01-11T18:50:00.161Z,995.69
2023-01-11T18:55:00.186Z,995.75
2023-01-11T19:00:00.205Z,995.8
2023-01-11T19:05:00.119Z,995.94
2023-01-11T19:10:00.131Z,995.98
2023-01-11T19:15:00.173Z,996.06
2023-01-11T19:20:00.130Z,996
2023-01-11T19:25:00.149Z,995.98
2023-01-11T19:30:00.186Z,996.01
2023-01-11T19:35:00.213Z,996.1
2023-01-11T19:40:00.111Z,996.11
2023-01-11T19:45:00.124Z,996.15
2023-01-11T19:50:00.158Z,996.32
2023-01-11T19:55:00.141Z,996.33
2023-01-11T20:00:00.169Z,996.47
2023-01-11T20:05:00.172Z,996.6
2023-01-11T20:10:00.154Z,996.58
2023-01-11T20:15:00.118Z,996.67
2023-01-11T20:20:00.184Z,996.81
2023-01-11T20:25:00.124Z,996.84
2023-01-11T20:30:00.172Z,996.82
2023-01-11T20:35:00.145Z,997
2023-01-11T20:40:00.155Z,997.08
2023-01-11T20:45:00.138Z,997
2023-01-11T20:50:00.136Z,997.03
2023-01-11T20:55:00.140Z,997.02
2023-01-11T21:00:00.185Z,996.98
2023-01-11T21:05:00.127Z,997.1
2023-01-11T21:10:00.127Z,997.21
2023-01-11T21:15:00.163Z,997.13
2023-01-11T21:20:00.140Z,997.17
2023-01-11T21:25:00.141Z,997.09
2023-01-11T21:30:00.162Z,997.65
2023-01-11T21:35:00.131Z,997.59
2023-01-11T21:40:00.132Z,997.61
2023-01-11T21:45:00.120Z,997.49
2023-01-11T21:50:00.115Z,997.48
2023-01-11T21:55:00.172Z,997.59
2023-01-11T22:00:00.143Z,997.51
2023-01-11T22:05:00.102Z,997.5
2023-01-11T22:10:04.744Z,997.45
2023-01-11T22:15:00.117Z,997.49
2023-01-11T22:20:00.122Z,997.48
2023-01-11T22:25:00.138Z,997.48
2023-01-11T22:30:00.166Z,997.49
2023-01-11T22:35:00.137Z,997.56
2023-01-11T22:40:01.645Z,997.65
2023-01-11T22:45:00.114Z,997.76
2023-01-11T22:50:00.142Z,997.68
2023-01-11T22:55:00.173Z,997.67
2023-01-11T23:00:00.170Z,997.47
2023-01-11T23:05:00.136Z,997.58
2023-01-11T23:10:00.108Z,997.62
2023-01-11T23:15:00.129Z,997.58
2023-01-11T23:20:00.104Z,997.65
2023-01-11T23:25:00.112Z,997.47
2023-01-11T23:30:00.164Z,997.32
2023-01-11T23:35:00.110Z,997.41
2023-01-11T23:40:00.156Z,997.33
2023-01-11T23:45:00.113Z,997.36
2023-01-11T23:50:00.159Z,997.26
2023-01-11T23:55:00.136Z,997.31
